Time;durP1;ratioP1;P1;durP2;ratioP2;P2;SDS_P1;SDS_P2;PMS_P1;PMS_P2;Temp;Humidity;BMP_temperature;BMP_pressure;BME280_temperature;BME280_humidity;BME280_pressure;Samples;Min_cycle;Max_cycle;Signal;HPM_P1;HPM_P2
2021/09/12 00:03:08;;;;;;;8.20;6.40;;;;;;;19.01;88.69;100260.42;2739126;86;21077;-72
2021/09/12 00:07:10;;;;;;;9.68;6.80;;;;;;;19.06;87.53;100253.97;2738655;86;21061;-71
2021/09/12 00:11:12;;;;;;;8.48;7.00;;;;;;;19.05;86.81;100254.99;2738198;87;21062;-71
2021/09/12 00:15:14;;;;;;;9.50;7.90;;;;;;;18.96;86.66;100251.00;2737266;86;21066;-72
2021/09/12 00:19:17;;;;;;;8.20;7.15;;;;;;;18.81;86.88;100254.16;2738647;86;21046;-71
2021/09/12 00:23:23;;;;;;;9.15;7.15;;;;;;;18.66;87.65;100253.59;2738314;87;21062;-72
2021/09/12 00:27:27;;;;;;;8.35;7.03;;;;;;;18.65;88.25;100254.61;2737706;87;20979;-72
2021/09/12 00:31:30;;;;;;;8.95;7.53;;;;;;;18.69;88.32;100249.70;2738449;86;21426;-72
2021/09/12 00:35:32;;;;;;;8.23;6.42;;;;;;;18.72;88.14;100249.34;2736585;85;21059;-72
2021/09/12 00:39:33;;;;;;;8.15;6.87;;;;;;;18.76;87.54;100250.65;2755841;86;21063;-72
2021/09/12 00:43:36;;;;;;;8.88;7.40;;;;;;;18.73;87.34;100254.23;2755687;86;21048;-72
2021/09/12 00:47:38;;;;;;;9.50;8.05;;;;;;;18.76;86.84;100249.83;2756009;86;21048;-72
2021/09/12 00:51:40;;;;;;;7.50;6.20;;;;;;;18.79;86.17;100252.16;2757672;84;21037;-72
2021/09/12 00:55:44;;;;;;;10.13;9.03;;;;;;;18.72;86.12;100256.08;2764084;86;21073;-72
2021/09/12 00:59:49;;;;;;;10.88;8.93;;;;;;;18.69;85.98;100253.25;2764649;86;21029;-72
2021/09/12 01:03:51;;;;;;;11.25;8.58;;;;;;;18.60;85.53;100247.58;2763571;86;21052;-72
2021/09/12 01:07:54;;;;;;;8.03;7.33;;;;;;;18.54;85.68;100257.73;2715184;87;21086;-72
2021/09/12 01:12:00;;;;;;;10.75;8.10;;;;;;;18.53;85.57;100252.02;2764258;86;21091;-72
2021/09/12 01:16:16;;;;;;;10.43;7.72;;;;;;;18.47;85.22;100248.18;2763818;84;20969;-72
2021/09/12 01:20:18;;;;;;;10.05;7.90;;;;;;;18.34;86.09;100247.92;2762626;86;21092;-72
2021/09/12 01:24:20;;;;;;;9.10;6.80;;;;;;;18.21;87.42;100252.55;2763874;86;21077;-72
2021/09/12 01:28:22;;;;;;;9.00;7.35;;;;;;;18.20;88.12;100249.52;2764353;86;21039;-71
2021/09/12 01:32:24;;;;;;;8.18;7.35;;;;;;;18.09;88.63;100253.45;2763473;86;21066;-72
2021/09/12 01:36:27;;;;;;;10.90;8.25;;;;;;;18.01;89.36;100248.09;2764317;86;21090;-72
2021/09/12 01:40:29;;;;;;;8.75;7.12;;;;;;;17.87;90.29;100252.34;2763926;86;21025;-72
2021/09/12 01:44:31;;;;;;;8.48;7.40;;;;;;;17.76;90.94;100255.76;2763922;84;21078;-72
2021/09/12 01:48:33;;;;;;;9.20;7.80;;;;;;;17.70;91.53;100258.63;2763693;86;21101;-72
2021/09/12 01:52:36;;;;;;;7.67;6.97;;;;;;;17.70;91.76;100263.19;2764294;86;21055;-72
2021/09/12 01:56:38;;;;;;;10.30;7.70;;;;;;;17.70;92.15;100264.53;2764362;86;21055;-72
2021/09/12 02:00:39;;;;;;;8.20;7.33;;;;;;;17.84;92.64;100258.92;2764355;86;21083;-72
2021/09/12 02:04:42;;;;;;;8.45;7.55;;;;;;;18.00;91.58;100262.05;2764201;86;21006;-72
2021/09/12 02:08:44;;;;;;;9.40;8.28;;;;;;;17.97;90.73;100260.53;2764169;86;21062;-72
2021/09/12 02:12:46;;;;;;;8.95;6.70;;;;;;;17.92;91.17;100260.75;2762874;86;21087;-72
2021/09/12 02:16:48;;;;;;;11.68;8.25;;;;;;;17.96;91.26;100266.10;2732256;86;21001;-71
2021/09/12 02:20:51;;;;;;;8.75;7.53;;;;;;;17.97;90.97;100270.47;2761917;86;21102;-72
2021/09/12 02:24:53;;;;;;;9.28;7.28;;;;;;;17.99;91.38;100263.91;2761939;86;21044;-72
2021/09/12 02:28:54;;;;;;;9.68;7.65;;;;;;;17.98;91.48;100268.11;2761790;86;21264;-72
2021/09/12 02:32:56;;;;;;;9.85;8.25;;;;;;;18.05;90.98;100271.80;2762088;86;20984;-71
2021/09/12 02:36:58;;;;;;;9.83;7.08;;;;;;;18.14;90.69;100273.94;2761648;86;21044;-72
2021/09/12 02:41:00;;;;;;;7.85;7.03;;;;;;;18.21;90.05;100271.39;2761786;86;21047;-72
2021/09/12 02:45:03;;;;;;;9.20;7.17;;;;;;;18.15;90.80;100270.23;2762046;86;21154;-72
2021/09/12 02:49:04;;;;;;;9.13;7.83;;;;;;;18.11;89.89;100269.77;2761669;86;21028;-72
2021/09/12 02:53:07;;;;;;;7.75;6.87;;;;;;;18.14;89.48;100268.56;2761785;86;21012;-72
2021/09/12 02:57:09;;;;;;;12.00;8.73;;;;;;;18.17;89.10;100270.08;2761997;86;21031;-72
2021/09/12 03:01:10;;;;;;;10.20;8.03;;;;;;;18.15;89.16;100270.76;2762008;86;21051;-72
2021/09/12 03:05:12;;;;;;;11.18;8.45;;;;;;;18.21;89.47;100272.25;2761851;86;21126;-71
2021/09/12 03:09:14;;;;;;;15.10;9.33;;;;;;;18.21;90.62;100271.39;2762405;86;21043;-72
2021/09/12 03:13:16;;;;;;;10.48;8.05;;;;;;;18.05;91.47;100264.25;2761865;86;21145;-72
2021/09/12 03:17:18;;;;;;;10.48;8.78;;;;;;;17.99;90.86;100263.91;2762315;86;21043;-72
2021/09/12 03:21:20;;;;;;;12.30;8.93;;;;;;;17.88;91.16;100271.01;2761912;86;21059;-72
2021/09/12 03:25:22;;;;;;;13.25;9.13;;;;;;;17.77;92.67;100266.84;2762044;86;21091;-70
2021/09/12 03:29:24;;;;;;;14.33;10.90;;;;;;;17.72;93.61;100265.19;2762094;86;21003;-72
2021/09/12 03:33:26;;;;;;;11.28;9.93;;;;;;;17.78;93.32;100274.39;2761858;86;21036;-72
2021/09/12 03:37:28;;;;;;;11.18;9.83;;;;;;;17.90;93.09;100275.70;2761442;85;21074;-71
2021/09/12 03:41:30;;;;;;;12.50;9.63;;;;;;;18.02;92.49;100272.16;2761454;86;22400;-72
2021/09/12 03:45:35;;;;;;;15.13;10.82;;;;;;;18.13;91.99;100270.43;2761838;86;21027;-72
2021/09/12 03:49:37;;;;;;;13.18;10.98;;;;;;;18.24;91.88;100273.23;2762639;86;21078;-72
2021/09/12 03:53:38;;;;;;;11.97;9.73;;;;;;;18.34;91.76;100273.50;2762146;86;21023;-72
2021/09/12 03:57:40;;;;;;;11.95;10.00;;;;;;;18.40;91.37;100268.25;2762602;84;20984;-71
2021/09/12 04:01:42;;;;;;;11.40;9.83;;;;;;;18.46;91.68;100264.50;2762364;86;21064;-72
2021/09/12 04:05:44;;;;;;;13.30;10.80;;;;;;;18.58;90.93;100268.48;2762592;86;21027;-72
2021/09/12 04:13:56;;;;;;;14.63;11.45;;;;;;;18.62;90.33;100269.78;2914800;78;20999;-61
2021/09/12 04:17:59;;;;;;;13.93;10.23;;;;;;;18.63;89.84;100269.30;2918607;81;20983;-60
2021/09/12 04:23:03;;;;;;;13.05;10.55;;;;;;;18.59;89.57;100270.67;2918379;81;20983;-60
2021/09/12 04:27:06;;;;;;;13.68;10.80;;;;;;;18.57;89.60;100272.19;2914932;78;68687;-72
2021/09/12 04:31:11;;;;;;;10.65;8.95;;;;;;;18.56;89.23;100274.03;2924419;81;21257;-72
2021/09/12 04:35:12;;;;;;;16.52;10.43;;;;;;;18.58;89.55;100281.95;2923923;81;21089;-72
2021/09/12 04:39:15;;;;;;;14.68;12.30;;;;;;;18.59;89.20;100282.27;2924703;80;20983;-72
2021/09/12 04:43:16;;;;;;;12.35;10.43;;;;;;;18.64;89.64;100286.61;2924654;81;21049;-72
2021/09/12 04:47:19;;;;;;;12.55;9.80;;;;;;;18.69;90.04;100283.38;2925011;81;21034;-72
2021/09/12 04:51:20;;;;;;;16.12;12.03;;;;;;;18.76;90.47;100282.98;2925170;81;21030;-72
2021/09/12 04:55:22;;;;;;;15.50;10.35;;;;;;;18.91;91.37;100285.75;2924347;81;21085;-72
2021/09/12 05:03:37;;;;;;;13.68;10.78;;;;;;;19.42;92.23;100289.70;2816592;84;21033;-59
2021/09/12 05:08:09;;;;;;;12.50;10.80;;;;;;;19.94;94.22;100297.94;2826482;82;21022;-61
2021/09/12 05:12:11;;;;;;;12.53;10.75;;;;;;;20.51;93.58;100292.80;2826092;84;20995;-60
2021/09/12 05:16:14;;;;;;;15.28;12.43;;;;;;;20.71;90.91;100287.59;2817551;84;21322;-60
2021/09/12 05:20:15;;;;;;;13.83;11.18;;;;;;;20.76;89.55;100285.67;2817560;82;21035;-60
2021/09/12 05:24:33;;;;;;;13.98;11.35;;;;;;;20.75;88.72;100294.30;2817894;82;21031;-60
2021/09/12 05:28:36;;;;;;;13.30;11.90;;;;;;;20.75;88.58;100293.45;2817755;84;21196;-60
2021/09/12 05:32:56;;;;;;;13.83;12.03;;;;;;;20.65;88.52;100304.08;2817978;82;21027;-60
2021/09/12 05:36:59;;;;;;;14.07;12.47;;;;;;;20.60;89.25;100306.50;2817647;84;20991;-60
2021/09/12 05:41:01;;;;;;;18.95;12.98;;;;;;;20.63;90.06;100300.70;2817946;84;20963;-60
2021/09/12 05:45:11;;;;;;;14.90;11.88;;;;;;;20.63;89.93;100302.59;2817447;82;21070;-60
2021/09/12 05:49:17;;;;;;;17.65;12.68;;;;;;;20.62;89.57;100305.80;2817761;82;21030;-61
2021/09/12 05:53:36;;;;;;;;;;;;;;;20.65;90.46;100307.28;2820148;84;21073;-60
2021/09/12 05:57:38;;;;;;;18.48;12.75;;;;;;;20.78;91.09;100310.63;2818219;82;20103;-60
2021/09/12 06:01:41;;;;;;;17.92;14.05;;;;;;;21.08;91.48;100303.78;2817482;84;21011;-61
2021/09/12 06:05:43;;;;;;;16.10;14.43;;;;;;;21.44;91.75;100304.17;2817551;84;21066;-60
2021/09/12 06:10:11;;;;;;;21.40;14.70;;;;;;;21.88;89.90;100312.98;2817660;84;21034;-59
2021/09/12 06:14:14;;;;;;;19.12;15.05;;;;;;;22.04;87.80;100315.90;2817658;84;21014;-60
2021/09/12 06:18:30;;;;;;;14.73;12.78;;;;;;;21.85;85.98;100322.05;2817725;84;20995;-60
2021/09/12 06:22:33;;;;;;;16.57;14.53;;;;;;;21.66;87.05;100327.14;2817362;82;20983;-62
2021/09/12 06:26:40;;;;;;;15.13;12.93;;;;;;;21.59;88.00;100324.35;2817633;82;21287;-62
2021/09/12 06:30:43;;;;;;;15.63;11.18;;;;;;;21.77;88.14;100331.98;2817554;84;20967;-59
2021/09/12 06:35:27;;;;;;;15.80;13.10;;;;;;;22.08;86.47;100327.15;2817495;82;21070;-62
2021/09/12 06:39:29;;;;;;;14.83;12.78;;;;;;;22.30;86.23;100333.30;2817453;84;21026;-60
2021/09/12 06:43:32;;;;;;;15.28;12.28;;;;;;;22.58;84.65;100327.48;2817422;82;21006;-60
2021/09/12 06:48:18;;;;;;;19.60;15.20;;;;;;;22.54;83.56;100331.11;2817764;84;21002;-62
2021/09/12 06:52:20;;;;;;;16.07;10.82;;;;;;;22.48;84.03;100326.52;2817339;84;21015;-60
2021/09/12 06:56:23;;;;;;;18.60;11.95;;;;;;;22.34;84.04;100326.43;2817612;82;21043;-60
2021/09/12 07:00:29;;;;;;;14.15;11.28;;;;;;;22.21;85.45;100333.17;2817919;84;21054;-60
2021/09/12 07:10:10;;;;;;;18.92;14.05;;;;;;;21.89;86.08;100332.25;2817108;82;21043;-60
2021/09/12 07:14:15;;;;;;;20.32;14.15;;;;;;;21.79;86.29;100330.44;2813093;83;20984;-63
2021/09/12 07:18:21;;;;;;;21.02;14.58;;;;;;;21.83;87.04;100336.63;2779640;82;20964;-61
2021/09/12 07:22:27;;;;;;;17.30;13.03;;;;;;;21.89;86.98;100330.91;2780088;82;20983;-63
2021/09/12 07:26:40;;;;;;;17.35;14.10;;;;;;;22.05;87.07;100333.82;2780816;83;21047;-62
2021/09/12 07:30:42;;;;;;;17.70;14.28;;;;;;;22.17;86.27;100340.00;2817712;84;20984;-60
2021/09/12 07:38:54;;;;;;;16.07;14.13;;;;;;;22.24;85.08;100351.72;2921023;78;68800;-72
2021/09/12 07:51:10;;;;;;;17.23;13.95;;;;;;;22.17;86.30;100352.19;2908287;80;21335;-72
2021/09/12 07:59:42;;;;;;;20.08;14.65;;;;;;;22.38;86.17;100354.78;2875939;78;21050;-62
2021/09/12 08:04:25;;;;;;;16.23;13.25;;;;;;;22.57;85.79;100357.80;2856352;81;21861;-64
2021/09/12 08:08:27;;;;;;;15.25;13.10;;;;;;;22.65;84.38;100357.64;2847265;83;20991;-62
2021/09/12 08:12:36;;;;;;;14.20;12.30;;;;;;;22.73;84.54;100358.48;2847464;81;21054;-62
2021/09/12 08:16:40;;;;;;;19.12;12.20;;;;;;;22.74;83.94;100361.00;2847246;83;21043;-62
2021/09/12 08:21:06;;;;;;;16.15;11.85;;;;;;;22.85;82.24;100362.27;2847607;81;21011;-62
2021/09/12 08:25:12;;;;;;;16.37;12.23;;;;;;;23.00;81.83;100359.91;2847212;83;21194;-62
2021/09/12 08:29:18;;;;;;;18.70;13.88;;;;;;;23.32;80.80;100353.38;2848085;81;20992;-62
2021/09/12 08:33:32;;;;;;;16.07;12.25;;;;;;;23.46;79.83;100353.69;2865937;83;20972;-61
2021/09/12 08:37:34;;;;;;;13.55;11.48;;;;;;;23.65;79.11;100351.17;2875414;80;21014;-62
2021/09/12 08:41:36;;;;;;;13.45;10.55;;;;;;;23.89;77.18;100350.17;2927351;81;21040;-62
2021/09/12 08:45:38;;;;;;;16.85;12.30;;;;;;;24.20;76.15;100346.77;2926727;81;21026;-62
2021/09/12 08:49:48;;;;;;;12.30;10.55;;;;;;;24.43;75.60;100352.20;2927431;81;20987;-62
2021/09/12 08:53:51;;;;;;;17.60;12.10;;;;;;;24.66;74.38;100353.03;2927123;81;21038;-62
2021/09/12 08:57:54;;;;;;;12.47;10.05;;;;;;;24.76;74.33;100344.94;2927197;81;21062;-61
2021/09/12 09:02:08;;;;;;;12.95;10.50;;;;;;;24.68;73.90;100353.64;2926898;81;20920;-64
2021/09/12 09:06:17;;;;;;;17.25;10.53;;;;;;;24.82;75.08;100340.01;2927479;79;20990;-63
2021/09/12 09:10:20;;;;;;;13.80;11.63;;;;;;;24.99;73.34;100338.13;2926881;78;21267;-60
2021/09/12 09:15:15;;;;;;;11.22;10.03;;;;;;;25.20;73.22;100340.47;2927474;81;20995;-61
2021/09/12 09:49:25;;;;;;;10.25;7.62;;;;;;;25.20;68.17;100337.74;2872965;81;21102;-62
2021/09/12 09:53:32;;;;;;;9.13;6.65;;;;;;;25.31;67.64;100331.25;2931983;79;21035;-60
2021/09/12 09:57:35;;;;;;;6.80;6.17;;;;;;;25.25;67.44;100332.97;2932717;81;20976;-59
2021/09/12 10:01:38;;;;;;;6.97;6.28;;;;;;;25.42;66.69;100327.81;2940950;80;20993;-62
2021/09/12 10:05:41;;;;;;;22.20;9.28;;;;;;;25.50;66.06;100320.74;2934762;80;20955;-59
2021/09/12 10:09:43;;;;;;;10.03;7.45;;;;;;;25.56;66.08;100319.56;2879097;81;21103;-60
2021/09/12 10:13:48;;;;;;;8.13;6.53;;;;;;;25.77;66.63;100316.41;2918502;81;20963;-59
2021/09/12 10:18:02;;;;;;;10.78;7.83;;;;;;;26.04;67.01;100315.23;2918026;81;21002;-59
2021/09/12 10:22:15;;;;;;;9.33;8.35;;;;;;;26.32;65.59;100307.89;2888244;81;21066;-60
2021/09/12 10:26:35;;;;;;;6.58;5.97;;;;;;;26.46;64.64;100300.90;2918397;81;21101;-60
2021/09/12 10:30:43;;;;;;;7.22;6.58;;;;;;;26.51;64.04;100300.52;2879513;82;21039;-61
2021/09/12 10:35:30;;;;;;;8.08;7.28;;;;;;;26.43;64.07;100298.64;2918589;81;20959;-59
2021/09/12 10:39:34;;;;;;;9.93;7.72;;;;;;;26.43;64.27;100297.28;2917045;81;21010;-60
2021/09/12 10:43:43;;;;;;;17.30;7.53;;;;;;;26.41;65.05;100303.50;2913294;81;20971;-60
2021/09/12 10:47:45;;;;;;;9.85;6.58;;;;;;;26.48;64.92;100302.86;2879831;82;21004;-60
2021/09/12 10:51:49;;;;;;;12.15;7.65;;;;;;;26.53;65.02;100298.93;2918569;81;21035;-60
2021/09/12 10:56:32;;;;;;;9.45;7.45;;;;;;;26.53;64.19;100298.93;2917538;81;20959;-60
2021/09/12 11:00:34;;;;;;;12.05;8.08;;;;;;;26.62;64.03;100284.41;2918284;81;20967;-61
2021/09/12 11:05:20;;;;;;;7.95;7.15;;;;;;;26.74;64.42;100279.00;2917840;81;20979;-59
2021/09/12 11:09:24;;;;;;;;;;;;;;;26.84;63.83;100268.88;2921018;81;20978;-60
2021/09/12 11:13:26;;;;;;;8.68;6.70;;;;;;;26.83;63.39;100276.22;2918327;81;20070;-58
2021/09/12 11:18:15;;;;;;;11.28;6.35;;;;;;;26.77;63.24;100275.80;2917632;81;21252;-58
2021/09/12 11:22:16;;;;;;;8.60;7.70;;;;;;;26.69;63.53;100270.15;2912012;81;21062;-58
2021/09/12 11:26:23;;;;;;;7.33;6.00;;;;;;;26.60;63.25;100268.28;2879641;81;20968;-59
2021/09/12 11:30:25;;;;;;;6.08;5.47;;;;;;;26.68;62.28;100262.19;2869180;83;20992;-57
2021/09/12 11:34:28;;;;;;;7.55;5.72;;;;;;;26.72;64.30;100259.28;2874484;82;21042;-58
2021/09/12 11:38:30;;;;;;;7.00;6.22;;;;;;;26.92;62.79;100258.48;2918214;81;20987;-57
2021/09/12 11:42:33;;;;;;;7.22;5.30;;;;;;;26.90;62.55;100241.48;2917896;80;21190;-59
2021/09/12 11:46:36;;;;;;;6.60;5.55;;;;;;;26.79;62.59;100245.02;2917597;80;20987;-58
2021/09/12 11:50:39;;;;;;;34.13;8.48;;;;;;;26.74;62.96;100237.53;2913702;81;20986;-59
2021/09/12 11:55:51;;;;;;;6.42;5.00;;;;;;;26.75;63.20;100238.38;2871017;80;21020;-59
2021/09/12 11:59:55;;;;;;;9.95;5.95;;;;;;;26.72;62.68;100233.37;2872222;80;20977;-59
2021/09/12 12:04:17;;;;;;;6.42;5.17;;;;;;;26.72;62.76;100234.73;2922106;81;21044;-60
2021/09/12 12:08:19;;;;;;;6.37;5.70;;;;;;;26.55;62.27;100236.80;2915525;81;20997;-59
2021/09/12 12:13:05;;;;;;;6.87;4.60;;;;;;;26.64;62.04;100229.11;2877255;81;21001;-60
2021/09/12 12:17:10;;;;;;;4.92;4.40;;;;;;;26.85;61.85;100227.73;2921226;81;21002;-59
2021/09/12 12:21:18;;;;;;;9.85;5.97;;;;;;;26.73;60.71;100228.23;2872342;83;21066;-59
2021/09/12 12:25:29;;;;;;;6.08;5.47;;;;;;;26.71;61.57;100227.61;2920640;81;20990;-59
2021/09/12 12:30:32;;;;;;;14.53;5.72;;;;;;;26.68;61.35;100225.36;2920638;81;21345;-59
2021/09/12 12:34:53;;;;;;;5.50;5.00;;;;;;;26.41;61.10;100225.78;2921080;81;20956;-59
2021/09/12 12:38:55;;;;;;;6.40;4.60;;;;;;;26.18;62.06;100220.02;2922143;81;21077;-58
2021/09/12 12:43:06;;;;;;;18.98;7.47;;;;;;;26.05;62.57;100222.91;2928237;80;20983;-59
2021/09/12 12:47:09;;;;;;;5.35;4.83;;;;;;;25.94;62.70;100225.86;2929000;78;69371;-70
2021/09/12 12:51:16;;;;;;;7.22;5.03;;;;;;;25.79;63.75;100217.58;2926928;81;20997;-70
2021/09/12 12:55:18;;;;;;;6.30;5.22;;;;;;;25.81;64.69;100220.05;2876177;81;21031;-72
2021/09/12 12:59:19;;;;;;;7.42;6.00;;;;;;;25.80;64.18;100215.15;2914004;81;20990;-70
2021/09/12 13:03:21;;;;;;;8.55;5.30;;;;;;;25.78;64.76;100212.34;2913778;81;21030;-71
2021/09/12 13:07:23;;;;;;;10.78;6.33;;;;;;;25.74;64.87;100207.05;2915276;78;21014;-72
2021/09/12 13:11:25;;;;;;;3.95;3.55;;;;;;;25.75;65.37;100200.55;2877212;80;21093;-73
2021/09/12 13:15:26;;;;;;;7.15;3.92;;;;;;;25.68;63.76;100206.07;2879429;82;21042;-72
2021/09/12 13:19:29;;;;;;;8.03;5.12;;;;;;;25.64;63.54;100208.95;2877832;82;21042;-70
2021/09/12 13:23:31;;;;;;;5.37;4.17;;;;;;;25.64;63.43;100208.95;2880691;82;20975;-69
2021/09/12 13:27:33;;;;;;;4.42;3.85;;;;;;;25.66;63.01;100210.41;2880783;82;21049;-71
2021/09/12 13:31:36;;;;;;;5.58;3.92;;;;;;;25.70;62.57;100202.59;2874423;82;21018;-71
2021/09/12 13:35:38;;;;;;;4.40;4.00;;;;;;;25.67;62.81;100207.13;2850602;82;21049;-71
2021/09/12 13:39:40;;;;;;;4.85;4.35;;;;;;;25.66;63.76;100205.47;2864063;79;21061;-71
2021/09/12 13:43:44;;;;;;;5.67;4.22;;;;;;;25.61;63.45;100201.25;2880885;82;21073;-71
2021/09/12 13:47:46;;;;;;;5.75;5.03;;;;;;;25.53;63.28;100191.48;2881313;81;20983;-70
2021/09/12 13:51:48;;;;;;;5.78;4.83;;;;;;;25.45;63.62;100192.59;2881414;81;22282;-71
2021/09/12 13:55:49;;;;;;;5.28;4.78;;;;;;;25.35;64.19;100182.75;2879329;80;21015;-71
2021/09/12 13:59:52;;;;;;;7.30;5.05;;;;;;;25.20;64.37;100185.84;2881239;82;20991;-71
2021/09/12 14:54:21;;;;;;;8.28;4.92;;;;;;;25.08;64.24;100194.77;2860412;81;21150;-60
2021/09/12 14:58:24;;;;;;;5.05;4.12;;;;;;;24.92;65.41;100193.44;2862277;83;21103;-62
2021/09/12 15:02:28;;;;;;;4.62;4.00;;;;;;;24.84;66.09;100191.53;2862246;83;30709;-60
2021/09/12 15:06:30;;;;;;;21.62;5.87;;;;;;;24.77;65.94;100192.42;2862687;82;21021;-61
2021/09/12 15:10:38;;;;;;;6.80;5.22;;;;;;;24.67;66.09;100191.53;2862999;82;21036;-62
2021/09/12 15:14:41;;;;;;;13.78;6.58;;;;;;;24.59;66.31;100182.82;2862570;83;20985;-61
2021/09/12 15:18:46;;;;;;;4.05;3.65;;;;;;;24.58;66.07;100189.31;2863297;80;21001;-61
2021/09/12 15:22:47;;;;;;;5.15;3.20;;;;;;;24.62;66.77;100185.94;2863071;82;21021;-62
2021/09/12 15:26:50;;;;;;;5.67;4.12;;;;;;;24.80;65.96;100181.64;2862817;80;21088;-60
2021/09/12 15:30:59;;;;;;;15.25;6.72;;;;;;;24.93;65.88;100176.06;2830763;80;21015;-60
2021/09/12 15:35:05;;;;;;;5.72;3.85;;;;;;;24.99;65.61;100176.23;2814468;83;21009;-62
2021/09/12 15:39:07;;;;;;;5.30;3.40;;;;;;;25.00;66.00;100173.27;2807421;81;21021;-59
2021/09/12 15:43:20;;;;;;;25.57;6.62;;;;;;;25.15;65.81;100166.10;2837292;83;21082;-60
2021/09/12 15:47:22;;;;;;;4.08;3.40;;;;;;;25.23;65.20;100167.70;2829428;83;20950;-62
2021/09/12 15:51:47;;;;;;;3.58;3.27;;;;;;;25.24;63.86;100160.68;2853739;83;21001;-60
2021/09/12 15:55:49;;;;;;;9.78;4.83;;;;;;;25.23;64.77;100161.74;2853423;81;21087;-59
2021/09/12 16:00:00;;;;;;;4.65;3.55;;;;;;;25.24;65.69;100157.11;2823845;83;20998;-61
2021/09/12 16:04:02;;;;;;;25.95;6.22;;;;;;;25.29;65.89;100155.08;2853118;82;21044;-62
2021/09/12 16:08:04;;;;;;;8.53;4.42;;;;;;;25.24;66.19;100157.11;2853366;81;21111;-60
2021/09/12 16:12:08;;;;;;;4.70;3.87;;;;;;;25.21;66.18;100154.34;2876894;82;21004;-61
2021/09/12 16:16:11;;;;;;;5.40;3.92;;;;;;;25.17;65.97;100146.33;2883870;82;21033;-59
2021/09/12 16:20:13;;;;;;;4.60;4.20;;;;;;;25.10;65.76;100142.83;2884096;82;20960;-60
2021/09/12 16:24:19;;;;;;;5.40;4.28;;;;;;;25.03;65.78;100144.80;2883753;80;20999;-59
2021/09/12 16:28:21;;;;;;;3.87;3.58;;;;;;;24.94;66.29;100148.34;2910070;79;20947;-60
2021/09/12 16:32:23;;;;;;;5.62;4.50;;;;;;;24.83;66.82;100150.42;2878767;82;20960;-59
2021/09/12 16:36:54;;;;;;;7.83;3.75;;;;;;;24.73;67.42;100150.90;2878533;81;21023;-60
2021/09/12 16:40:57;;;;;;;4.85;4.47;;;;;;;24.55;67.84;100152.52;2866529;81;21037;-61
2021/09/12 16:45:09;;;;;;;6.12;4.83;;;;;;;24.43;68.33;100148.87;2827000;83;20981;-60
2021/09/12 16:49:05;;;;;;;5.42;4.85;;;;;;;24.34;69.15;100151.84;2785326;82;20977;-58
2021/09/12 16:53:35;;;;;;;5.78;5.05;;;;;;;24.22;69.23;100155.80;2838552;81;21029;-59
2021/09/12 16:57:36;;;;;;;12.93;6.78;;;;;;;24.15;69.29;100155.53;2834797;82;20999;-59
2021/09/12 17:01:43;;;;;;;44.33;10.13;;;;;;;24.07;69.36;100153.91;2878559;81;20952;-61
2021/09/12 17:05:46;;;;;;;22.22;8.18;;;;;;;23.95;69.77;100148.30;2878823;81;20960;-59
2021/09/12 17:09:52;;;;;;;8.65;5.40;;;;;;;23.87;69.85;100152.65;2863339;81;21028;-60
2021/09/12 17:13:53;;;;;;;6.10;5.12;;;;;;;23.71;70.31;100146.66;2806088;85;20993;-59
2021/09/12 17:18:00;;;;;;;8.93;5.45;;;;;;;23.47;70.79;100155.86;2805843;82;20973;-59
2021/09/12 17:22:01;;;;;;;7.50;6.47;;;;;;;23.33;71.98;100163.72;2805794;84;21052;-60
2021/09/12 17:26:12;;;;;;;10.28;5.87;;;;;;;23.17;72.53;100169.06;2846712;83;21021;-59
2021/09/12 17:30:15;;;;;;;8.30;6.42;;;;;;;23.08;72.72;100162.49;2853472;82;20985;-59
2021/09/12 17:34:16;;;;;;;11.38;8.25;;;;;;;22.96;73.47;100160.95;2853873;82;21024;-60
2021/09/12 17:38:18;;;;;;;55.92;13.58;;;;;;;22.89;73.88;100166.07;2853352;83;21032;-60
2021/09/12 17:42:27;;;;;;;42.98;12.73;;;;;;;22.84;74.11;100161.30;2853670;83;21048;-61
2021/09/12 17:46:29;;;;;;;30.40;9.08;;;;;;;22.80;74.70;100167.66;2853706;82;21047;-60
2021/09/12 17:50:30;;;;;;;10.65;7.53;;;;;;;22.78;74.89;100167.03;2853860;81;21009;-60
2021/09/12 17:54:39;;;;;;;9.10;6.87;;;;;;;22.76;75.28;100169.13;2853278;81;20946;-60
2021/09/12 17:58:41;;;;;;;8.85;7.42;;;;;;;22.74;76.17;100174.44;2854109;83;20974;-59
2021/09/12 18:02:49;;;;;;;10.20;6.97;;;;;;;22.72;76.49;100171.09;2853787;81;21048;-59
2021/09/12 18:06:51;;;;;;;8.10;6.62;;;;;;;22.69;76.77;100165.56;2853766;83;21013;-59
2021/09/12 18:10:52;;;;;;;9.90;6.05;;;;;;;22.66;76.93;100165.98;2853606;81;21080;-61
2021/09/12 18:15:15;;;;;;;6.67;5.97;;;;;;;22.68;77.06;100167.45;2853635;83;21020;-60
2021/09/12 18:19:17;;;;;;;8.45;7.22;;;;;;;22.72;77.21;100167.88;2853510;81;20978;-60
2021/09/12 18:29:14;;;;;;;9.00;7.03;;;;;;;22.53;78.08;100169.03;2853493;81;21029;-60
2021/09/12 18:33:16;;;;;;;9.18;7.62;;;;;;;22.38;78.62;100175.13;2853638;81;20966;-59
2021/09/12 18:37:18;;;;;;;13.10;8.55;;;;;;;22.34;78.90;100178.76;2853544;83;20981;-60
2021/09/12 18:42:17;;;;;;;9.43;7.67;;;;;;;22.32;79.34;100176.78;2836132;83;21000;-62
2021/09/12 18:46:19;;;;;;;7.05;6.42;;;;;;;22.31;79.69;100175.65;2815080;82;21017;-60
2021/09/12 18:51:19;;;;;;;8.85;7.90;;;;;;;22.25;79.93;100179.48;2814247;81;21322;-61
2021/09/12 18:55:21;;;;;;;10.50;6.85;;;;;;;22.24;80.30;100183.77;2809583;82;20955;-61
2021/09/12 18:59:24;;;;;;;13.20;8.45;;;;;;;22.17;80.21;100193.73;2809662;80;20991;-62
2021/09/12 19:03:28;;;;;;;12.37;9.03;;;;;;;22.09;80.30;100202.37;2809849;80;21047;-61
2021/09/12 19:07:30;;;;;;;9.18;8.28;;;;;;;22.04;80.60;100204.02;2809401;81;21002;-62
2021/09/12 19:11:32;;;;;;;13.03;9.95;;;;;;;21.94;80.64;100209.31;2809582;80;20986;-60
2021/09/12 19:15:34;;;;;;;12.13;9.53;;;;;;;21.88;80.91;100208.75;2809498;80;21030;-61
2021/09/12 19:19:35;;;;;;;13.75;11.48;;;;;;;21.82;81.15;100213.63;2809512;84;20967;-61
2021/09/12 19:23:56;;;;;;;14.25;11.00;;;;;;;21.76;81.31;100210.38;2809006;82;21050;-61
2021/09/12 19:27:58;;;;;;;21.62;14.40;;;;;;;21.72;80.80;100220.77;2809428;82;21022;-61
2021/09/12 19:32:19;;;;;;;16.67;12.88;;;;;;;21.65;80.84;100217.20;2849576;80;21016;-60
2021/09/12 19:36:22;;;;;;;16.82;13.15;;;;;;;21.53;80.99;100228.55;2867053;82;21021;-61
2021/09/12 19:40:24;;;;;;;16.27;13.00;;;;;;;21.43;81.44;100221.83;2778898;81;21026;-62
2021/09/12 19:44:28;;;;;;;16.80;13.35;;;;;;;21.31;81.49;100222.91;2770790;84;20968;-60
2021/09/12 19:48:31;;;;;;;21.70;16.00;;;;;;;21.22;82.02;100224.42;2817090;82;21378;-62
2021/09/12 19:52:57;;;;;;;18.23;13.98;;;;;;;21.13;82.47;100225.59;2822174;83;21311;-62
2021/09/12 19:56:58;;;;;;;23.62;13.93;;;;;;;21.06;82.54;100230.13;2872576;81;20992;-62
2021/09/12 20:09:42;;;;;;;19.17;12.63;;;;;;;20.84;83.03;100240.98;2897476;79;21267;-60
2021/09/12 20:13:45;;;;;;;99.00;24.12;;;;;;;20.82;83.07;100245.72;2911673;78;20994;-61
2021/09/12 20:17:47;;;;;;;37.70;15.72;;;;;;;20.76;82.81;100249.17;2890022;79;20918;-61
2021/09/12 20:21:52;;;;;;;16.97;13.05;;;;;;;20.66;83.28;100244.09;2892119;80;21049;-61
2021/09/12 20:25:54;;;;;;;16.45;12.05;;;;;;;20.59;83.43;100239.98;2976210;76;21001;-62
2021/09/12 20:29:58;;;;;;;12.13;10.75;;;;;;;20.48;83.93;100240.51;2940423;79;20981;-61
2021/09/12 20:34:11;;;;;;;14.90;10.85;;;;;;;20.44;84.09;100241.39;2931389;78;21000;-61
2021/09/12 20:38:13;;;;;;;17.00;12.40;;;;;;;20.40;84.06;100246.87;2931640;78;20977;-61
2021/09/12 20:42:19;;;;;;;15.08;12.40;;;;;;;20.33;83.99;100249.49;2930725;78;20981;-62
2021/09/12 20:46:21;;;;;;;13.13;10.10;;;;;;;20.24;84.36;100245.22;2940780;79;21096;-61
2021/09/12 20:50:23;;;;;;;14.78;13.22;;;;;;;20.11;84.72;100245.91;2931104;78;21028;-61
2021/09/12 20:54:25;;;;;;;17.55;12.60;;;;;;;20.08;85.33;100253.89;2940141;78;21295;-62
2021/09/12 21:11:20;;;;;;;14.33;12.55;;;;;;;20.08;85.58;100253.89;2933821;79;67562;-71
2021/09/12 21:15:22;;;;;;;20.80;13.85;;;;;;;20.02;86.48;100254.63;2930432;81;21051;-72
2021/09/12 21:19:24;;;;;;;17.10;13.58;;;;;;;20.04;86.51;100255.28;2930914;80;21039;-72